sensor_id;sensor_type;location;lat;lon;timestamp;P1;durP1;ratioP1;P2;durP2;ratioP2
6177;SDS011;3122;48.208;11.174;2024-02-26T00:02:29;7.53;;;5.87;;
6177;SDS011;3122;48.208;11.174;2024-02-26T00:07:29;8.17;;;6.27;;
6177;SDS011;3122;48.208;11.174;2024-02-26T00:12:30;9.90;;;6.60;;
6177;SDS011;3122;48.208;11.174;2024-02-26T00:17:31;9.07;;;6.47;;
6177;SDS011;3122;48.208;11.174;2024-02-26T00:22:31;8.23;;;6.30;;
6177;SDS011;3122;48.208;11.174;2024-02-26T00:27:32;9.27;;;6.40;;
6177;SDS011;3122;48.208;11.174;2024-02-26T00:32:32;9.33;;;7.30;;
6177;SDS011;3122;48.208;11.174;2024-02-26T00:37:33;11.80;;;8.60;;
6177;SDS011;3122;48.208;11.174;2024-02-26T00:42:33;13.10;;;7.90;;
6177;SDS011;3122;48.208;11.174;2024-02-26T00:47:34;9.97;;;7.70;;
6177;SDS011;3122;48.208;11.174;2024-02-26T00:52:35;10.97;;;7.83;;
6177;SDS011;3122;48.208;11.174;2024-02-26T00:57:35;12.03;;;8.30;;
6177;SDS011;3122;48.208;11.174;2024-02-26T01:02:36;10.40;;;7.27;;
6177;SDS011;3122;48.208;11.174;2024-02-26T01:07:38;11.50;;;8.23;;
6177;SDS011;3122;48.208;11.174;2024-02-26T01:12:39;10.50;;;8.03;;
6177;SDS011;3122;48.208;11.174;2024-02-26T01:17:40;10.50;;;7.57;;
6177;SDS011;3122;48.208;11.174;2024-02-26T01:22:41;10.30;;;7.47;;
6177;SDS011;3122;48.208;11.174;2024-02-26T01:27:42;10.80;;;8.20;;
6177;SDS011;3122;48.208;11.174;2024-02-26T01:32:44;10.17;;;7.83;;
6177;SDS011;3122;48.208;11.174;2024-02-26T01:37:44;11.90;;;8.20;;
6177;SDS011;3122;48.208;11.174;2024-02-26T01:42:45;11.40;;;8.83;;
6177;SDS011;3122;48.208;11.174;2024-02-26T01:47:45;11.67;;;8.20;;
6177;SDS011;3122;48.208;11.174;2024-02-26T01:52:46;11.60;;;7.90;;
6177;SDS011;3122;48.208;11.174;2024-02-26T01:57:49;12.47;;;9.03;;
6177;SDS011;3122;48.208;11.174;2024-02-26T02:02:52;11.40;;;8.17;;
6177;SDS011;3122;48.208;11.174;2024-02-26T02:07:54;16.23;;;8.40;;
6177;SDS011;3122;48.208;11.174;2024-02-26T02:12:55;12.33;;;8.23;;
6177;SDS011;3122;48.208;11.174;2024-02-26T02:17:56;11.97;;;8.23;;
6177;SDS011;3122;48.208;11.174;2024-02-26T02:22:56;12.27;;;8.40;;
6177;SDS011;3122;48.208;11.174;2024-02-26T02:27:57;10.80;;;8.00;;
6177;SDS011;3122;48.208;11.174;2024-02-26T02:32:57;11.67;;;8.37;;
6177;SDS011;3122;48.208;11.174;2024-02-26T02:37:58;11.97;;;9.00;;
6177;SDS011;3122;48.208;11.174;2024-02-26T02:42:59;13.07;;;8.60;;
6177;SDS011;3122;48.208;11.174;2024-02-26T02:48:01;14.07;;;8.30;;
6177;SDS011;3122;48.208;11.174;2024-02-26T02:53:02;12.23;;;8.57;;
6177;SDS011;3122;48.208;11.174;2024-02-26T02:58:03;12.17;;;8.30;;
6177;SDS011;3122;48.208;11.174;2024-02-26T03:03:04;10.97;;;8.40;;
6177;SDS011;3122;48.208;11.174;2024-02-26T03:08:04;10.50;;;7.30;;
6177;SDS011;3122;48.208;11.174;2024-02-26T03:13:05;15.00;;;8.40;;
6177;SDS011;3122;48.208;11.174;2024-02-26T03:18:06;11.87;;;8.20;;
6177;SDS011;3122;48.208;11.174;2024-02-26T03:23:07;14.57;;;8.80;;
6177;SDS011;3122;48.208;11.174;2024-02-26T03:28:11;15.47;;;9.00;;
6177;SDS011;3122;48.208;11.174;2024-02-26T03:33:12;12.50;;;8.73;;
6177;SDS011;3122;48.208;11.174;2024-02-26T03:38:13;14.20;;;9.40;;
6177;SDS011;3122;48.208;11.174;2024-02-26T03:43:14;13.30;;;8.73;;
6177;SDS011;3122;48.208;11.174;2024-02-26T03:48:14;13.70;;;8.47;;
6177;SDS011;3122;48.208;11.174;2024-02-26T03:53:15;13.20;;;9.07;;
6177;SDS011;3122;48.208;11.174;2024-02-26T03:58:15;12.13;;;8.00;;
6177;SDS011;3122;48.208;11.174;2024-02-26T04:03:16;14.17;;;9.50;;
6177;SDS011;3122;48.208;11.174;2024-02-26T04:08:16;12.73;;;8.80;;
6177;SDS011;3122;48.208;11.174;2024-02-26T04:13:17;12.07;;;8.27;;
6177;SDS011;3122;48.208;11.174;2024-02-26T04:18:18;11.40;;;7.53;;
6177;SDS011;3122;48.208;11.174;2024-02-26T04:23:19;11.43;;;7.33;;
6177;SDS011;3122;48.208;11.174;2024-02-26T04:28:19;13.10;;;8.43;;
6177;SDS011;3122;48.208;11.174;2024-02-26T04:33:26;10.47;;;7.20;;
6177;SDS011;3122;48.208;11.174;2024-02-26T04:38:26;12.07;;;8.20;;
6177;SDS011;3122;48.208;11.174;2024-02-26T04:43:27;11.00;;;7.60;;
6177;SDS011;3122;48.208;11.174;2024-02-26T04:48:27;12.47;;;7.60;;
6177;SDS011;3122;48.208;11.174;2024-02-26T04:53:28;10.53;;;6.80;;
6177;SDS011;3122;48.208;11.174;2024-02-26T04:58:29;10.60;;;7.53;;
6177;SDS011;3122;48.208;11.174;2024-02-26T05:03:29;9.23;;;6.87;;
6177;SDS011;3122;48.208;11.174;2024-02-26T05:08:30;10.40;;;7.40;;
6177;SDS011;3122;48.208;11.174;2024-02-26T05:13:30;8.13;;;6.27;;
6177;SDS011;3122;48.208;11.174;2024-02-26T05:18:31;10.80;;;7.73;;
6177;SDS011;3122;48.208;11.174;2024-02-26T05:23:32;9.70;;;7.03;;
6177;SDS011;3122;48.208;11.174;2024-02-26T05:28:32;11.97;;;7.80;;
6177;SDS011;3122;48.208;11.174;2024-02-26T05:33:33;10.97;;;7.30;;
6177;SDS011;3122;48.208;11.174;2024-02-26T05:38:33;10.57;;;7.27;;
6177;SDS011;3122;48.208;11.174;2024-02-26T05:43:34;14.50;;;8.60;;
6177;SDS011;3122;48.208;11.174;2024-02-26T05:48:34;12.40;;;7.80;;
6177;SDS011;3122;48.208;11.174;2024-02-26T05:53:35;10.73;;;7.80;;
6177;SDS011;3122;48.208;11.174;2024-02-26T05:58:35;12.20;;;7.83;;
6177;SDS011;3122;48.208;11.174;2024-02-26T06:03:36;11.50;;;7.63;;
6177;SDS011;3122;48.208;11.174;2024-02-26T06:08:37;9.73;;;7.20;;
6177;SDS011;3122;48.208;11.174;2024-02-26T06:13:37;12.67;;;7.80;;
6177;SDS011;3122;48.208;11.174;2024-02-26T06:18:38;12.23;;;8.40;;
6177;SDS011;3122;48.208;11.174;2024-02-26T06:23:39;15.47;;;9.10;;
6177;SDS011;3122;48.208;11.174;2024-02-26T06:28:40;13.33;;;9.57;;
6177;SDS011;3122;48.208;11.174;2024-02-26T06:33:40;20.90;;;11.70;;
6177;SDS011;3122;48.208;11.174;2024-02-26T06:38:41;18.40;;;10.40;;
6177;SDS011;3122;48.208;11.174;2024-02-26T06:43:41;13.30;;;9.03;;
6177;SDS011;3122;48.208;11.174;2024-02-26T06:48:42;14.00;;;8.67;;
6177;SDS011;3122;48.208;11.174;2024-02-26T06:53:43;14.40;;;8.50;;
6177;SDS011;3122;48.208;11.174;2024-02-26T06:58:43;14.37;;;9.23;;
6177;SDS011;3122;48.208;11.174;2024-02-26T07:03:44;14.77;;;9.33;;
6177;SDS011;3122;48.208;11.174;2024-02-26T07:08:44;14.73;;;9.27;;
6177;SDS011;3122;48.208;11.174;2024-02-26T07:13:45;13.73;;;8.83;;
6177;SDS011;3122;48.208;11.174;2024-02-26T07:18:46;14.90;;;9.10;;
6177;SDS011;3122;48.208;11.174;2024-02-26T07:23:46;16.00;;;9.07;;
6177;SDS011;3122;48.208;11.174;2024-02-26T07:28:47;15.80;;;9.10;;
6177;SDS011;3122;48.208;11.174;2024-02-26T07:33:47;20.10;;;11.77;;
6177;SDS011;3122;48.208;11.174;2024-02-26T07:38:48;18.37;;;9.23;;
6177;SDS011;3122;48.208;11.174;2024-02-26T07:43:49;12.53;;;7.93;;
6177;SDS011;3122;48.208;11.174;2024-02-26T07:48:49;13.93;;;9.77;;
6177;SDS011;3122;48.208;11.174;2024-02-26T07:53:50;13.17;;;8.47;;
6177;SDS011;3122;48.208;11.174;2024-02-26T07:58:52;14.33;;;8.67;;
6177;SDS011;3122;48.208;11.174;2024-02-26T08:03:53;13.20;;;9.07;;
6177;SDS011;3122;48.208;11.174;2024-02-26T08:08:54;18.00;;;10.03;;
6177;SDS011;3122;48.208;11.174;2024-02-26T08:13:54;13.47;;;8.90;;
6177;SDS011;3122;48.208;11.174;2024-02-26T08:18:55;15.17;;;8.70;;
6177;SDS011;3122;48.208;11.174;2024-02-26T08:23:55;21.23;;;12.07;;
6177;SDS011;3122;48.208;11.174;2024-02-26T08:28:56;13.63;;;8.90;;
6177;SDS011;3122;48.208;11.174;2024-02-26T08:33:58;18.37;;;10.17;;
6177;SDS011;3122;48.208;11.174;2024-02-26T08:38:59;16.40;;;9.97;;
6177;SDS011;3122;48.208;11.174;2024-02-26T08:44:00;14.37;;;9.47;;
6177;SDS011;3122;48.208;11.174;2024-02-26T08:49:00;14.70;;;9.43;;
6177;SDS011;3122;48.208;11.174;2024-02-26T08:54:01;16.43;;;10.33;;
6177;SDS011;3122;48.208;11.174;2024-02-26T08:59:01;14.27;;;10.03;;
6177;SDS011;3122;48.208;11.174;2024-02-26T09:04:03;15.33;;;10.40;;
6177;SDS011;3122;48.208;11.174;2024-02-26T09:09:04;17.10;;;10.30;;
6177;SDS011;3122;48.208;11.174;2024-02-26T09:14:05;18.13;;;10.13;;
6177;SDS011;3122;48.208;11.174;2024-02-26T09:19:05;14.13;;;8.90;;
6177;SDS011;3122;48.208;11.174;2024-02-26T09:24:06;11.63;;;7.70;;
6177;SDS011;3122;48.208;11.174;2024-02-26T09:29:07;12.50;;;8.40;;
6177;SDS011;3122;48.208;11.174;2024-02-26T09:34:08;12.87;;;8.00;;
6177;SDS011;3122;48.208;11.174;2024-02-26T09:39:08;11.53;;;8.00;;
6177;SDS011;3122;48.208;11.174;2024-02-26T09:44:11;15.87;;;9.00;;
6177;SDS011;3122;48.208;11.174;2024-02-26T09:49:15;13.53;;;9.07;;
6177;SDS011;3122;48.208;11.174;2024-02-26T09:54:16;14.87;;;8.93;;
6177;SDS011;3122;48.208;11.174;2024-02-26T09:59:17;10.30;;;7.93;;
6177;SDS011;3122;48.208;11.174;2024-02-26T10:04:18;13.10;;;9.03;;
6177;SDS011;3122;48.208;11.174;2024-02-26T10:09:20;14.00;;;8.60;;
6177;SDS011;3122;48.208;11.174;2024-02-26T10:14:21;11.30;;;7.47;;
6177;SDS011;3122;48.208;11.174;2024-02-26T10:19:25;11.83;;;7.67;;
6177;SDS011;3122;48.208;11.174;2024-02-26T10:24:30;10.87;;;7.43;;
6177;SDS011;3122;48.208;11.174;2024-02-26T10:29:31;11.03;;;7.57;;
6177;SDS011;3122;48.208;11.174;2024-02-26T10:34:32;9.70;;;7.20;;
6177;SDS011;3122;48.208;11.174;2024-02-26T10:39:36;9.33;;;5.83;;
6177;SDS011;3122;48.208;11.174;2024-02-26T10:44:39;7.03;;;5.20;;
6177;SDS011;3122;48.208;11.174;2024-02-26T10:49:44;8.50;;;5.87;;
6177;SDS011;3122;48.208;11.174;2024-02-26T10:54:47;11.23;;;6.50;;
6177;SDS011;3122;48.208;11.174;2024-02-26T10:59:48;9.53;;;6.30;;
6177;SDS011;3122;48.208;11.174;2024-02-26T11:09:52;13.33;;;7.23;;
6177;SDS011;3122;48.208;11.174;2024-02-26T11:14:55;9.73;;;6.50;;
6177;SDS011;3122;48.208;11.174;2024-02-26T11:19:58;10.10;;;6.73;;
6177;SDS011;3122;48.208;11.174;2024-02-26T11:24:59;9.63;;;6.37;;
6177;SDS011;3122;48.208;11.174;2024-02-26T11:30:01;8.23;;;5.97;;
6177;SDS011;3122;48.208;11.174;2024-02-26T11:35:05;10.10;;;6.57;;
6177;SDS011;3122;48.208;11.174;2024-02-26T11:40:13;8.67;;;6.17;;
6177;SDS011;3122;48.208;11.174;2024-02-26T11:50:40;6.30;;;5.70;;
6177;SDS011;3122;48.208;11.174;2024-02-26T11:55:42;7.33;;;5.60;;
6177;SDS011;3122;48.208;11.174;2024-02-26T12:00:43;5.90;;;5.10;;
6177;SDS011;3122;48.208;11.174;2024-02-26T12:05:43;6.47;;;4.33;;
6177;SDS011;3122;48.208;11.174;2024-02-26T12:10:44;4.77;;;3.87;;
6177;SDS011;3122;48.208;11.174;2024-02-26T12:15:54;3.90;;;3.60;;
6177;SDS011;3122;48.208;11.174;2024-02-26T12:21:00;5.20;;;3.40;;
6177;SDS011;3122;48.208;11.174;2024-02-26T12:26:02;4.03;;;3.40;;
6177;SDS011;3122;48.208;11.174;2024-02-26T12:31:02;5.37;;;3.63;;
6177;SDS011;3122;48.208;11.174;2024-02-26T12:36:04;4.47;;;3.83;;
6177;SDS011;3122;48.208;11.174;2024-02-26T12:41:05;3.43;;;3.13;;
6177;SDS011;3122;48.208;11.174;2024-02-26T12:46:07;2.83;;;2.63;;
6177;SDS011;3122;48.208;11.174;2024-02-26T12:51:07;3.80;;;3.30;;
6177;SDS011;3122;48.208;11.174;2024-02-26T12:56:10;3.47;;;3.10;;
6177;SDS011;3122;48.208;11.174;2024-02-26T13:01:15;3.47;;;3.00;;
6177;SDS011;3122;48.208;11.174;2024-02-26T13:06:18;4.70;;;2.90;;
6177;SDS011;3122;48.208;11.174;2024-02-26T13:11:19;3.47;;;3.17;;
6177;SDS011;3122;48.208;11.174;2024-02-26T13:16:20;2.80;;;2.60;;
6177;SDS011;3122;48.208;11.174;2024-02-26T13:21:24;2.60;;;2.40;;
6177;SDS011;3122;48.208;11.174;2024-02-26T13:26:26;4.30;;;2.60;;
6177;SDS011;3122;48.208;11.174;2024-02-26T13:31:26;3.67;;;2.80;;
6177;SDS011;3122;48.208;11.174;2024-02-26T13:36:27;3.27;;;2.37;;
6177;SDS011;3122;48.208;11.174;2024-02-26T13:41:27;2.30;;;2.20;;
6177;SDS011;3122;48.208;11.174;2024-02-26T13:46:28;3.80;;;3.10;;
6177;SDS011;3122;48.208;11.174;2024-02-26T13:51:29;4.10;;;3.10;;
6177;SDS011;3122;48.208;11.174;2024-02-26T13:56:35;3.30;;;3.00;;
6177;SDS011;3122;48.208;11.174;2024-02-26T14:01:36;2.80;;;2.60;;
6177;SDS011;3122;48.208;11.174;2024-02-26T14:06:36;3.00;;;2.70;;
6177;SDS011;3122;48.208;11.174;2024-02-26T14:11:37;2.80;;;2.60;;
6177;SDS011;3122;48.208;11.174;2024-02-26T14:16:39;4.87;;;2.47;;
6177;SDS011;3122;48.208;11.174;2024-02-26T14:21:40;2.57;;;2.37;;
6177;SDS011;3122;48.208;11.174;2024-02-26T14:26:40;3.10;;;2.80;;
6177;SDS011;3122;48.208;11.174;2024-02-26T14:31:41;5.20;;;2.80;;
6177;SDS011;3122;48.208;11.174;2024-02-26T14:36:42;3.13;;;2.83;;
6177;SDS011;3122;48.208;11.174;2024-02-26T14:41:43;3.00;;;2.80;;
6177;SDS011;3122;48.208;11.174;2024-02-26T14:46:43;5.83;;;2.53;;
6177;SDS011;3122;48.208;11.174;2024-02-26T14:51:44;3.40;;;2.57;;
6177;SDS011;3122;48.208;11.174;2024-02-26T14:56:45;4.00;;;2.30;;
6177;SDS011;3122;48.208;11.174;2024-02-26T15:01:45;2.00;;;1.90;;
6177;SDS011;3122;48.208;11.174;2024-02-26T15:06:46;2.30;;;2.10;;
6177;SDS011;3122;48.208;11.174;2024-02-26T15:11:47;2.50;;;2.00;;
6177;SDS011;3122;48.208;11.174;2024-02-26T15:16:47;2.93;;;1.97;;
6177;SDS011;3122;48.208;11.174;2024-02-26T15:21:48;2.27;;;2.13;;
6177;SDS011;3122;48.208;11.174;2024-02-26T15:26:49;2.07;;;1.87;;
6177;SDS011;3122;48.208;11.174;2024-02-26T15:31:50;2.10;;;1.90;;
6177;SDS011;3122;48.208;11.174;2024-02-26T15:36:50;2.07;;;1.97;;
6177;SDS011;3122;48.208;11.174;2024-02-26T15:41:52;2.70;;;2.40;;
6177;SDS011;3122;48.208;11.174;2024-02-26T15:46:53;3.17;;;2.90;;
6177;SDS011;3122;48.208;11.174;2024-02-26T15:51:53;2.47;;;2.27;;
6177;SDS011;3122;48.208;11.174;2024-02-26T15:56:54;2.27;;;2.07;;
6177;SDS011;3122;48.208;11.174;2024-02-26T16:01:54;3.80;;;2.00;;
6177;SDS011;3122;48.208;11.174;2024-02-26T16:06:56;2.10;;;2.00;;
6177;SDS011;3122;48.208;11.174;2024-02-26T16:12:00;1.80;;;1.70;;
6177;SDS011;3122;48.208;11.174;2024-02-26T16:17:12;2.30;;;2.10;;
6177;SDS011;3122;48.208;11.174;2024-02-26T16:22:19;2.13;;;1.93;;
6177;SDS011;3122;48.208;11.174;2024-02-26T16:27:19;3.40;;;2.40;;
6177;SDS011;3122;48.208;11.174;2024-02-26T16:32:20;4.57;;;1.63;;
6177;SDS011;3122;48.208;11.174;2024-02-26T16:37:22;2.70;;;2.30;;
6177;SDS011;3122;48.208;11.174;2024-02-26T16:42:22;26.50;;;18.00;;
6177;SDS011;3122;48.208;11.174;2024-02-26T16:47:23;6.77;;;4.53;;
6177;SDS011;3122;48.208;11.174;2024-02-26T16:52:25;7.30;;;6.63;;
6177;SDS011;3122;48.208;11.174;2024-02-26T16:57:25;12.60;;;9.57;;
6177;SDS011;3122;48.208;11.174;2024-02-26T17:02:26;32.20;;;18.70;;
6177;SDS011;3122;48.208;11.174;2024-02-26T17:07:26;19.77;;;16.07;;
6177;SDS011;3122;48.208;11.174;2024-02-26T17:12:27;21.30;;;11.93;;
6177;SDS011;3122;48.208;11.174;2024-02-26T17:17:27;6.90;;;6.20;;
6177;SDS011;3122;48.208;11.174;2024-02-26T17:22:28;9.80;;;7.90;;
6177;SDS011;3122;48.208;11.174;2024-02-26T17:27:29;5.50;;;4.90;;
6177;SDS011;3122;48.208;11.174;2024-02-26T17:32:30;74.20;;;31.83;;
6177;SDS011;3122;48.208;11.174;2024-02-26T17:37:30;50.90;;;24.97;;
6177;SDS011;3122;48.208;11.174;2024-02-26T17:42:31;137.17;;;51.33;;
6177;SDS011;3122;48.208;11.174;2024-02-26T17:47:31;65.63;;;28.03;;
6177;SDS011;3122;48.208;11.174;2024-02-26T17:52:32;16.70;;;8.87;;
6177;SDS011;3122;48.208;11.174;2024-02-26T17:57:36;6.20;;;4.20;;
6177;SDS011;3122;48.208;11.174;2024-02-26T18:02:36;19.37;;;16.07;;
6177;SDS011;3122;48.208;11.174;2024-02-26T18:07:37;11.80;;;10.50;;
6177;SDS011;3122;48.208;11.174;2024-02-26T18:12:39;7.20;;;4.53;;
6177;SDS011;3122;48.208;11.174;2024-02-26T18:17:39;6.23;;;5.40;;
6177;SDS011;3122;48.208;11.174;2024-02-26T18:22:41;39.07;;;23.13;;
6177;SDS011;3122;48.208;11.174;2024-02-26T18:27:41;45.83;;;29.63;;
6177;SDS011;3122;48.208;11.174;2024-02-26T18:32:42;94.03;;;43.70;;
6177;SDS011;3122;48.208;11.174;2024-02-26T18:37:43;41.77;;;23.43;;
6177;SDS011;3122;48.208;11.174;2024-02-26T18:42:43;52.17;;;27.17;;
6177;SDS011;3122;48.208;11.174;2024-02-26T18:47:45;47.67;;;25.20;;
6177;SDS011;3122;48.208;11.174;2024-02-26T18:52:46;38.50;;;25.30;;
6177;SDS011;3122;48.208;11.174;2024-02-26T18:57:48;18.47;;;12.33;;
6177;SDS011;3122;48.208;11.174;2024-02-26T19:02:48;21.53;;;11.97;;
6177;SDS011;3122;48.208;11.174;2024-02-26T19:07:49;25.53;;;14.60;;
6177;SDS011;3122;48.208;11.174;2024-02-26T19:12:53;93.70;;;42.53;;
6177;SDS011;3122;48.208;11.174;2024-02-26T19:17:54;15.80;;;9.93;;
6177;SDS011;3122;48.208;11.174;2024-02-26T19:22:56;12.57;;;8.60;;
6177;SDS011;3122;48.208;11.174;2024-02-26T19:27:56;15.03;;;10.50;;
6177;SDS011;3122;48.208;11.174;2024-02-26T19:32:57;6.47;;;5.37;;
6177;SDS011;3122;48.208;11.174;2024-02-26T19:37:57;6.50;;;5.63;;
6177;SDS011;3122;48.208;11.174;2024-02-26T19:42:58;17.37;;;9.80;;
6177;SDS011;3122;48.208;11.174;2024-02-26T19:47:59;42.60;;;18.03;;
6177;SDS011;3122;48.208;11.174;2024-02-26T19:52:59;109.60;;;41.30;;
6177;SDS011;3122;48.208;11.174;2024-02-26T19:58:00;27.40;;;16.73;;
6177;SDS011;3122;48.208;11.174;2024-02-26T20:03:03;33.70;;;20.40;;
6177;SDS011;3122;48.208;11.174;2024-02-26T20:08:05;37.53;;;18.40;;
6177;SDS011;3122;48.208;11.174;2024-02-26T20:13:06;97.77;;;37.00;;
6177;SDS011;3122;48.208;11.174;2024-02-26T20:18:07;11.17;;;8.90;;
6177;SDS011;3122;48.208;11.174;2024-02-26T20:23:07;7.73;;;6.67;;
6177;SDS011;3122;48.208;11.174;2024-02-26T20:28:08;23.67;;;15.60;;
6177;SDS011;3122;48.208;11.174;2024-02-26T20:33:09;7.83;;;6.30;;
6177;SDS011;3122;48.208;11.174;2024-02-26T20:38:09;35.37;;;17.90;;
6177;SDS011;3122;48.208;11.174;2024-02-26T20:43:10;30.43;;;20.17;;
6177;SDS011;3122;48.208;11.174;2024-02-26T20:48:11;22.17;;;17.37;;
6177;SDS011;3122;48.208;11.174;2024-02-26T20:53:11;9.57;;;6.97;;
6177;SDS011;3122;48.208;11.174;2024-02-26T20:58:12;8.03;;;7.23;;
6177;SDS011;3122;48.208;11.174;2024-02-26T21:03:13;9.73;;;8.80;;
6177;SDS011;3122;48.208;11.174;2024-02-26T21:08:13;9.50;;;8.60;;
6177;SDS011;3122;48.208;11.174;2024-02-26T21:13:14;7.53;;;6.60;;
6177;SDS011;3122;48.208;11.174;2024-02-26T21:18:15;6.73;;;5.10;;
6177;SDS011;3122;48.208;11.174;2024-02-26T21:23:15;5.20;;;4.70;;
6177;SDS011;3122;48.208;11.174;2024-02-26T21:28:17;6.10;;;4.63;;
6177;SDS011;3122;48.208;11.174;2024-02-26T21:33:18;6.70;;;4.67;;
6177;SDS011;3122;48.208;11.174;2024-02-26T21:38:18;4.23;;;3.83;;
6177;SDS011;3122;48.208;11.174;2024-02-26T22:38:26;23.53;;;16.60;;
6177;SDS011;3122;48.208;11.174;2024-02-26T22:43:26;12.70;;;7.70;;
6177;SDS011;3122;48.208;11.174;2024-02-26T22:48:27;8.60;;;7.10;;
6177;SDS011;3122;48.208;11.174;2024-02-26T22:53:28;17.20;;;12.03;;
6177;SDS011;3122;48.208;11.174;2024-02-26T22:58:28;11.17;;;7.20;;
6177;SDS011;3122;48.208;11.174;2024-02-26T23:03:29;6.23;;;4.40;;
6177;SDS011;3122;48.208;11.174;2024-02-26T23:08:29;9.70;;;8.47;;
6177;SDS011;3122;48.208;11.174;2024-02-26T23:13:30;8.80;;;6.23;;
6177;SDS011;3122;48.208;11.174;2024-02-26T23:18:30;6.00;;;4.30;;
6177;SDS011;3122;48.208;11.174;2024-02-26T23:23:31;11.97;;;9.70;;
6177;SDS011;3122;48.208;11.174;2024-02-26T23:28:31;9.03;;;7.60;;
6177;SDS011;3122;48.208;11.174;2024-02-26T23:33:32;9.73;;;7.73;;
6177;SDS011;3122;48.208;11.174;2024-02-26T23:38:32;21.23;;;11.33;;
6177;SDS011;3122;48.208;11.174;2024-02-26T23:43:34;10.60;;;7.20;;
6177;SDS011;3122;48.208;11.174;2024-02-26T23:48:35;7.40;;;5.30;;
6177;SDS011;3122;48.208;11.174;2024-02-26T23:53:35;7.63;;;5.43;;
6177;SDS011;3122;48.208;11.174;2024-02-26T23:58:36;6.90;;;4.87;;
